Terminal Aerodrome Forecast
Issued by NWS Spokane, WA

Home | Current Version | Previous Version | Text Only | Print | Product List | Glossary On
Versions: 1 2 3 4 5 6 7 8 9 10 11 12 13 14 15 16 17 18 19 20 21 22 23 24 25
000
FTUS46 KOTX 041120
TAFEAT
TAF
KEAT 041120Z 0412/0512 32012KT P6SM SKC
     FM041700 29007KT P6SM SKC
     FM050000 31016G22KT P6SM FEW100
     FM050600 31012KT P6SM FEW100=

USA.gov is the U.S. government's official web portal to all federal, state and local government web resources and services.